createdAt,value
2022-07-25T00:01:49.624Z,21.52
2022-07-25T00:03:58.410Z,21.39
2022-07-25T00:06:06.441Z,21.29
2022-07-25T00:08:22.120Z,21.19
2022-07-25T00:10:30.306Z,21.11
2022-07-25T00:12:38.735Z,21.08
2022-07-25T00:14:50.993Z,21.00
2022-07-25T00:16:59.230Z,21.01
2022-07-25T00:19:07.529Z,21.23
2022-07-25T00:21:16.134Z,21.18
2022-07-25T00:23:24.365Z,21.19
2022-07-25T00:25:33.262Z,21.25
2022-07-25T00:27:41.566Z,21.20
2022-07-25T00:29:52.462Z,21.18
2022-07-25T00:32:00.954Z,21.13
2022-07-25T00:34:09.514Z,21.15
2022-07-25T00:36:18.130Z,21.20
2022-07-25T00:38:26.351Z,21.10
2022-07-25T00:40:35.029Z,21.10
2022-07-25T00:42:43.263Z,21.15
2022-07-25T00:44:54.411Z,21.03
2022-07-25T00:47:03.303Z,21.02
2022-07-25T00:49:12.143Z,20.93
2022-07-25T00:51:20.971Z,20.90
2022-07-25T00:53:29.690Z,20.87
2022-07-25T00:55:38.981Z,20.89
2022-07-25T00:57:48.458Z,20.81
2022-07-25T00:59:59.459Z,20.76
2022-07-25T01:02:08.069Z,20.70
2022-07-25T01:04:17.989Z,20.66
2022-07-25T01:06:26.942Z,20.62
2022-07-25T01:08:35.834Z,20.49
2022-07-25T01:10:44.248Z,20.43
2022-07-25T01:12:54.970Z,20.40
2022-07-25T01:15:05.874Z,20.43
2022-07-25T01:17:14.002Z,20.37
2022-07-25T01:19:22.135Z,20.40
2022-07-25T01:21:33.056Z,20.47
2022-07-25T01:23:41.380Z,20.51
2022-07-25T01:25:49.355Z,20.48
2022-07-25T01:27:58.332Z,20.40
2022-07-25T01:30:09.369Z,20.37
2022-07-25T01:32:17.966Z,20.24
2022-07-25T01:34:25.967Z,20.18
2022-07-25T01:36:37.243Z,20.19
2022-07-25T01:38:45.619Z,20.12
2022-07-25T01:40:53.888Z,20.25
2022-07-25T01:43:02.028Z,20.25
2022-07-25T01:45:11.900Z,20.17
2022-07-25T01:47:20.078Z,20.12
2022-07-25T01:49:28.289Z,20.12
2022-07-25T01:51:40.986Z,20.11
2022-07-25T01:53:51.220Z,20.04
2022-07-25T01:56:00.452Z,20.03
2022-07-25T01:58:10.862Z,19.94
2022-07-25T02:00:19.722Z,19.92
2022-07-25T02:02:27.761Z,19.85
2022-07-25T02:04:37.642Z,19.76
2022-07-25T02:06:49.273Z,19.78
2022-07-25T02:08:57.089Z,19.80
2022-07-25T02:11:05.669Z,19.83
2022-07-25T02:13:13.769Z,19.90
2022-07-25T02:15:22.762Z,19.86
2022-07-25T02:17:33.009Z,19.84
2022-07-25T02:19:41.114Z,19.91
2022-07-25T02:21:51.609Z,19.88
2022-07-25T02:24:01.357Z,19.98
2022-07-25T02:26:09.589Z,19.98
2022-07-25T02:28:21.353Z,19.88
2022-07-25T02:30:29.780Z,19.78
2022-07-25T02:32:37.686Z,19.73
2022-07-25T02:34:45.642Z,19.73
2022-07-25T02:36:58.398Z,19.70
2022-07-25T02:39:07.561Z,19.66
2022-07-25T02:41:15.802Z,19.64
2022-07-25T02:43:24.034Z,19.65
2022-07-25T02:45:33.551Z,19.70
2022-07-25T02:47:43.827Z,19.78
2022-07-25T02:49:51.728Z,19.83
2022-07-25T02:52:03.778Z,19.95
2022-07-25T02:54:12.637Z,19.82
2022-07-25T02:56:21.426Z,19.83
2022-07-25T02:58:30.691Z,19.80
2022-07-25T03:00:39.062Z,19.69
2022-07-25T03:02:47.430Z,19.68
2022-07-25T03:04:55.409Z,19.67
2022-07-25T03:07:05.892Z,19.69
2022-07-25T03:09:14.055Z,19.62
2022-07-25T03:11:22.962Z,19.64
2022-07-25T03:13:30.814Z,19.59
2022-07-25T03:15:38.888Z,19.55
2022-07-25T03:17:47.880Z,19.57
2022-07-25T03:19:55.752Z,19.62
2022-07-25T03:22:06.242Z,19.57
2022-07-25T03:24:14.142Z,19.49
2022-07-25T03:26:24.012Z,19.49
2022-07-25T03:28:32.977Z,19.50
2022-07-25T03:30:41.167Z,19.44
2022-07-25T03:32:48.997Z,19.40
2022-07-25T03:34:57.308Z,19.41
2022-07-25T03:37:08.487Z,19.40
2022-07-25T03:39:18.331Z,19.48
2022-07-25T03:41:27.943Z,19.51
2022-07-25T03:43:36.422Z,19.53
2022-07-25T03:45:44.519Z,19.54
2022-07-25T03:47:52.507Z,19.51
2022-07-25T03:50:00.550Z,19.55
2022-07-25T03:52:11.086Z,19.42
2022-07-25T03:54:18.862Z,19.29
2022-07-25T03:56:26.747Z,19.22
2022-07-25T03:58:34.708Z,19.26
2022-07-25T04:00:42.602Z,19.35
2022-07-25T04:02:50.602Z,19.36
2022-07-25T04:04:58.428Z,19.34
2022-07-25T04:07:06.361Z,19.33
2022-07-25T04:09:17.241Z,19.34
2022-07-25T04:11:25.195Z,19.45
2022-07-25T04:13:33.062Z,19.49
2022-07-25T04:15:40.903Z,19.49
2022-07-25T04:17:48.696Z,19.48
2022-07-25T04:19:56.763Z,19.48
2022-07-25T04:22:04.786Z,19.53
2022-07-25T04:24:12.893Z,19.54
2022-07-25T04:26:24.241Z,19.81
2022-07-25T04:28:32.865Z,20.54
2022-07-25T04:30:41.551Z,21.29
2022-07-25T04:32:49.528Z,22.21
2022-07-25T04:34:57.574Z,23.12
2022-07-25T04:37:05.446Z,23.19
2022-07-25T04:39:13.331Z,23.90
2022-07-25T04:41:24.449Z,24.52
2022-07-25T04:43:32.950Z,24.97
2022-07-25T04:45:44.155Z,26.15
2022-07-25T04:47:52.445Z,26.32
2022-07-25T04:50:01.288Z,27.74
2022-07-25T04:52:09.594Z,26.62
2022-07-25T04:54:17.414Z,26.17
2022-07-25T04:56:27.952Z,26.91
2022-07-25T04:58:36.388Z,27.28
2022-07-25T05:00:44.422Z,27.71
2022-07-25T05:02:52.437Z,29.22
2022-07-25T05:05:03.122Z,28.64
2022-07-25T05:07:11.314Z,28.38
2022-07-25T05:09:19.537Z,28.36
2022-07-25T05:11:31.127Z,28.59
2022-07-25T05:13:41.600Z,28.03
2022-07-25T05:15:49.563Z,28.93
2022-07-25T05:18:01.673Z,28.04
2022-07-25T05:20:18.075Z,28.00
2022-07-25T05:22:28.500Z,27.58
2022-07-25T05:24:50.979Z,28.68
2022-07-25T05:27:02.254Z,30.02
2022-07-25T05:29:10.394Z,30.40
2022-07-25T05:31:18.334Z,30.49
2022-07-25T05:33:26.705Z,29.59
2022-07-25T05:35:34.629Z,29.42
2022-07-25T05:37:42.470Z,29.96
2022-07-25T05:39:51.647Z,30.06
2022-07-25T05:42:03.390Z,28.66
2022-07-25T05:44:11.554Z,29.51
2022-07-25T05:46:22.192Z,28.72
2022-07-25T05:48:33.990Z,29.58
2022-07-25T05:50:41.962Z,28.72
2022-07-25T05:52:51.551Z,30.10
2022-07-25T05:55:01.777Z,30.51
2022-07-25T05:57:12.339Z,31.66
2022-07-25T05:59:20.616Z,30.52
2022-07-25T06:01:28.683Z,30.45
2022-07-25T06:03:37.211Z,29.96
2022-07-25T06:05:45.084Z,31.29
2022-07-25T06:07:53.215Z,32.29
2022-07-25T06:10:01.512Z,31.86
2022-07-25T06:12:14.160Z,31.82
2022-07-25T06:14:22.091Z,33.38
2022-07-25T06:16:33.665Z,32.77
2022-07-25T06:18:41.610Z,31.05
2022-07-25T06:20:49.813Z,32.35
2022-07-25T06:22:57.988Z,32.38
2022-07-25T06:25:08.662Z,31.98
2022-07-25T06:27:23.040Z,34.35
2022-07-25T06:29:32.963Z,32.92
2022-07-25T06:31:40.927Z,34.53
2022-07-25T06:33:51.414Z,32.87
2022-07-25T06:35:59.447Z,31.18
2022-07-25T06:38:10.507Z,31.32
2022-07-25T06:40:20.769Z,32.01
2022-07-25T06:42:33.423Z,31.19
2022-07-25T06:44:41.388Z,33.98
2022-07-25T06:46:49.253Z,35.24
2022-07-25T06:48:59.957Z,35.42
2022-07-25T06:51:08.932Z,35.69
2022-07-25T06:53:19.288Z,37.06
2022-07-25T06:55:27.402Z,38.68
2022-07-25T06:57:39.311Z,38.62
2022-07-25T06:59:47.974Z,37.70
2022-07-25T07:01:57.871Z,38.86
2022-07-25T07:04:09.072Z,39.69
2022-07-25T07:06:17.548Z,38.82
2022-07-25T07:08:25.605Z,38.58
2022-07-25T07:10:34.001Z,39.96
2022-07-25T07:12:44.833Z,40.75
2022-07-25T07:14:52.702Z,40.71
2022-07-25T07:17:01.911Z,40.43
2022-07-25T07:19:15.492Z,40.93
2022-07-25T07:21:23.493Z,41.64
2022-07-25T07:23:31.343Z,41.59
2022-07-25T07:25:40.894Z,41.06
2022-07-25T07:27:54.458Z,42.10
2022-07-25T07:30:02.463Z,41.20
2022-07-25T07:32:12.686Z,40.24
2022-07-25T07:34:22.993Z,41.73
2022-07-25T07:38:55.297Z,42.21
2022-07-25T07:41:03.211Z,41.88
2022-07-25T07:43:13.781Z,42.18
2022-07-25T07:45:23.444Z,39.74
2022-07-25T07:47:31.349Z,41.24
2022-07-25T07:49:39.243Z,39.90
2022-07-25T07:51:47.133Z,38.61
2022-07-25T07:54:07.454Z,40.67
2022-07-25T07:56:15.294Z,41.14
2022-07-25T07:58:25.953Z,38.77
2022-07-25T08:00:36.254Z,39.96
2022-07-25T08:02:49.082Z,41.96
2022-07-25T08:04:57.014Z,42.25
2022-07-25T08:07:04.959Z,42.31
2022-07-25T08:09:12.958Z,41.42
2022-07-25T08:11:20.955Z,38.96
2022-07-25T08:13:34.114Z,39.88
2022-07-25T08:15:42.203Z,38.37
2022-07-25T08:17:51.978Z,38.99
2022-07-25T08:20:14.677Z,38.08
2022-07-25T08:22:27.846Z,38.38
2022-07-25T08:24:35.771Z,39.23
2022-07-25T08:26:46.204Z,40.06
2022-07-25T08:29:17.575Z,39.05
2022-07-25T08:31:25.481Z,37.47
2022-07-25T08:33:33.465Z,37.04
2022-07-25T08:35:42.032Z,36.99
2022-07-25T08:37:51.774Z,36.55
2022-07-25T08:40:02.620Z,36.95
2022-07-25T08:42:11.737Z,35.07
2022-07-25T08:44:23.355Z,34.58
2022-07-25T08:46:32.751Z,34.34
2022-07-25T08:48:41.573Z,34.16
2022-07-25T08:50:51.458Z,33.48
2022-07-25T08:53:34.926Z,33.42
2022-07-25T08:55:28.952Z,33.75
2022-07-25T08:57:38.621Z,34.81
2022-07-25T08:59:51.638Z,35.12
2022-07-25T09:02:07.217Z,35.06
2022-07-25T09:04:17.192Z,35.83
2022-07-25T09:06:26.065Z,36.88
2022-07-25T09:08:34.162Z,37.63
2022-07-25T09:10:43.568Z,37.00
2022-07-25T09:12:56.456Z,39.10
2022-07-25T09:15:09.289Z,39.78
2022-07-25T09:17:22.331Z,40.86
2022-07-25T09:19:31.952Z,41.90
2022-07-25T09:21:39.965Z,42.39
2022-07-25T09:23:49.802Z,42.88
2022-07-25T09:26:05.483Z,43.57
2022-07-25T09:28:18.260Z,43.61
2022-07-25T09:30:29.272Z,43.16
2022-07-25T09:32:37.176Z,43.38
2022-07-25T09:34:47.757Z,43.27
2022-07-25T09:36:56.539Z,42.30
2022-07-25T09:39:06.663Z,43.16
2022-07-25T09:41:14.593Z,43.82
2022-07-25T09:43:24.669Z,44.68
2022-07-25T09:45:37.073Z,43.93
2022-07-25T09:47:57.437Z,43.07
2022-07-25T09:50:07.869Z,44.18
2022-07-25T09:52:17.409Z,43.45
2022-07-25T09:54:25.346Z,43.47
2022-07-25T09:56:33.231Z,43.00
2022-07-25T09:58:41.446Z,43.19
2022-07-25T10:00:53.439Z,42.95
2022-07-25T10:03:21.134Z,41.95
2022-07-25T10:05:43.094Z,41.29
2022-07-25T10:07:53.742Z,41.99
2022-07-25T10:10:02.915Z,41.93
2022-07-25T10:12:13.370Z,41.70
2022-07-25T10:14:21.306Z,42.81
2022-07-25T10:16:31.929Z,42.98
2022-07-25T10:18:53.538Z,42.41
2022-07-25T10:21:25.551Z,41.47
2022-07-25T10:23:34.525Z,42.38
2022-07-25T10:25:47.104Z,42.44
2022-07-25T10:28:04.191Z,42.04
2022-07-25T10:30:25.053Z,42.16
2022-07-25T10:32:38.810Z,42.13
2022-07-25T10:34:55.318Z,42.34
2022-07-25T10:37:14.810Z,42.39
2022-07-25T10:39:25.193Z,41.67
2022-07-25T10:41:38.386Z,41.30
2022-07-25T10:43:49.662Z,41.25
2022-07-25T10:46:01.188Z,40.74
2022-07-25T10:48:23.491Z,40.59
2022-07-25T10:50:54.459Z,40.12
2022-07-25T10:53:09.287Z,40.80
2022-07-25T10:55:26.604Z,40.35
2022-07-25T10:57:34.682Z,38.82
2022-07-25T10:59:42.971Z,39.07
2022-07-25T11:01:55.091Z,39.59
2022-07-25T11:04:17.357Z,40.13
2022-07-25T11:06:38.316Z,39.73
2022-07-25T11:08:47.353Z,39.85
2022-07-25T11:10:55.909Z,39.44
2022-07-25T11:13:04.012Z,37.94
2022-07-25T11:15:17.202Z,36.83
2022-07-25T11:17:27.296Z,37.10
2022-07-25T11:19:38.074Z,37.63
2022-07-25T11:21:48.712Z,37.35
2022-07-25T11:24:01.855Z,36.89
2022-07-25T11:26:12.162Z,36.48
2022-07-25T11:28:20.075Z,36.07
2022-07-25T11:30:30.945Z,36.40
2022-07-25T11:32:45.175Z,35.62
2022-07-25T11:34:57.297Z,34.93
2022-07-25T11:37:10.058Z,34.88
2022-07-25T11:39:19.257Z,35.32
2022-07-25T11:41:33.578Z,35.51
2022-07-25T11:43:41.421Z,35.91
2022-07-25T11:46:00.495Z,35.99
2022-07-25T11:48:11.030Z,35.99
2022-07-25T11:50:32.629Z,35.64
2022-07-25T11:52:42.516Z,36.18
2022-07-25T11:55:00.501Z,35.74
2022-07-25T11:57:09.071Z,35.80
2022-07-25T11:59:17.162Z,35.96
2022-07-25T12:01:25.172Z,36.33
2022-07-25T12:03:42.330Z,36.79
2022-07-25T12:05:53.151Z,36.54
2022-07-25T12:08:01.944Z,36.85
2022-07-25T12:10:13.494Z,35.91
2022-07-25T12:12:23.008Z,35.18
2022-07-25T12:14:35.267Z,35.88
2022-07-25T12:16:45.377Z,36.28
2022-07-25T12:18:54.408Z,36.56
2022-07-25T12:21:05.375Z,36.35
2022-07-25T12:23:14.790Z,35.90
2022-07-25T12:25:26.328Z,35.99
2022-07-25T12:27:39.328Z,36.50
2022-07-25T12:29:50.076Z,36.64
2022-07-25T12:31:58.263Z,36.33
2022-07-25T12:34:08.543Z,35.67
2022-07-25T12:36:22.587Z,35.74
2022-07-25T12:38:30.460Z,35.45
2022-07-25T12:40:41.417Z,35.75
2022-07-25T12:42:51.780Z,35.99
2022-07-25T12:44:59.660Z,35.87
2022-07-25T12:47:07.617Z,36.16
2022-07-25T12:49:15.910Z,36.07
2022-07-25T12:51:27.101Z,35.48
2022-07-25T12:53:37.860Z,34.94
2022-07-25T12:55:49.781Z,34.70
2022-07-25T12:57:58.225Z,34.41
2022-07-25T13:00:08.828Z,34.36
2022-07-25T13:02:17.565Z,34.41
2022-07-25T13:04:26.196Z,34.08
2022-07-25T13:06:38.759Z,34.18
2022-07-25T13:08:47.163Z,34.12
2022-07-25T13:10:55.776Z,33.94
2022-07-25T13:13:03.824Z,33.67
2022-07-25T13:15:13.582Z,33.77
2022-07-25T13:17:27.247Z,33.86
2022-07-25T13:19:35.542Z,33.75
2022-07-25T13:21:46.970Z,33.98
2022-07-25T13:23:54.890Z,34.26
2022-07-25T13:26:03.155Z,34.43
2022-07-25T13:28:11.312Z,34.98
2022-07-25T13:30:19.768Z,35.37
2022-07-25T13:32:28.610Z,35.31
2022-07-25T13:34:36.871Z,35.60
2022-07-25T13:36:47.946Z,35.47
2022-07-25T13:38:59.318Z,35.05
2022-07-25T13:41:07.410Z,34.59
2022-07-25T13:43:16.507Z,34.40
2022-07-25T13:45:27.487Z,34.22
2022-07-25T13:47:36.315Z,34.30
2022-07-25T13:49:45.643Z,34.35
2022-07-25T13:51:56.136Z,34.38
2022-07-25T13:54:05.029Z,34.32
2022-07-25T13:56:14.580Z,34.16
2022-07-25T13:58:22.550Z,34.12
2022-07-25T14:00:30.653Z,34.46
2022-07-25T14:02:38.603Z,34.49
2022-07-25T14:04:49.189Z,34.30
2022-07-25T14:06:59.673Z,34.31
2022-07-25T14:09:08.099Z,34.84
2022-07-25T14:11:16.960Z,34.96
2022-07-25T14:13:24.925Z,35.29
2022-07-25T14:15:37.837Z,35.16
2022-07-25T14:17:46.111Z,34.93
2022-07-25T14:19:54.010Z,34.64
2022-07-25T14:22:06.808Z,34.25
2022-07-25T14:24:14.436Z,34.14
2022-07-25T14:26:22.588Z,33.78
2022-07-25T14:28:30.950Z,33.34
2022-07-25T14:30:38.832Z,33.10
2022-07-25T14:32:47.328Z,32.94
2022-07-25T14:34:55.387Z,32.59
2022-07-25T14:37:06.177Z,32.35
2022-07-25T14:39:15.275Z,32.21
2022-07-25T14:41:23.449Z,32.73
2022-07-25T14:43:31.934Z,32.76
2022-07-25T14:45:40.392Z,32.71
2022-07-25T14:47:48.465Z,32.77
2022-07-25T14:49:56.934Z,32.93
2022-07-25T14:52:11.439Z,32.68
2022-07-25T14:54:20.298Z,32.52
2022-07-25T14:56:28.313Z,32.54
2022-07-25T14:58:38.317Z,32.50
2022-07-25T15:00:46.533Z,32.92
2022-07-25T15:02:54.452Z,33.09
2022-07-25T15:05:02.338Z,33.17
2022-07-25T15:07:14.242Z,32.92
2022-07-25T15:09:24.454Z,32.95
2022-07-25T15:11:32.617Z,32.85
2022-07-25T15:13:40.701Z,32.91
2022-07-25T15:15:48.900Z,32.92
2022-07-25T15:17:56.762Z,33.20
2022-07-25T15:20:04.804Z,33.34
2022-07-25T15:22:15.547Z,33.34
2022-07-25T15:24:28.728Z,33.32
2022-07-25T15:26:37.270Z,33.12
2022-07-25T15:28:45.120Z,32.95
2022-07-25T15:30:53.137Z,32.69
2022-07-25T15:33:01.076Z,32.49
2022-07-25T15:35:10.204Z,32.43
2022-07-25T15:37:22.046Z,32.42
2022-07-25T15:39:30.220Z,32.67
2022-07-25T15:41:38.635Z,32.51
2022-07-25T15:43:46.520Z,32.40
2022-07-25T15:45:54.753Z,32.43
2022-07-25T15:48:03.942Z,32.37
2022-07-25T15:50:12.972Z,32.20
2022-07-25T15:52:24.755Z,32.06
2022-07-25T15:54:32.787Z,31.99
2022-07-25T15:56:40.696Z,31.63
2022-07-25T15:58:50.500Z,31.47
2022-07-25T16:00:58.414Z,31.21
2022-07-25T16:03:08.061Z,31.03
2022-07-25T16:05:18.127Z,30.90
2022-07-25T16:07:31.119Z,30.71
2022-07-25T16:09:39.996Z,30.60
2022-07-25T16:11:48.302Z,30.58
2022-07-25T16:13:56.680Z,30.58
2022-07-25T16:16:04.761Z,30.58
2022-07-25T16:18:12.713Z,30.47
2022-07-25T16:20:23.165Z,30.37
2022-07-25T16:22:33.863Z,30.27
2022-07-25T16:24:42.812Z,30.17
2022-07-25T16:26:50.951Z,30.03
2022-07-25T16:28:58.809Z,29.88
2022-07-25T16:31:07.883Z,29.73
2022-07-25T16:33:15.791Z,29.74
2022-07-25T16:35:24.406Z,29.58
2022-07-25T16:37:34.970Z,29.61
2022-07-25T16:39:44.980Z,29.54
2022-07-25T16:41:55.447Z,29.61
2022-07-25T16:44:03.445Z,29.70
2022-07-25T16:46:11.996Z,29.82
2022-07-25T16:48:19.936Z,29.93
2022-07-25T16:50:27.844Z,29.92
2022-07-25T16:52:38.492Z,29.86
2022-07-25T16:54:46.630Z,29.86
2022-07-25T16:56:57.312Z,29.62
2022-07-25T16:59:08.147Z,29.56
2022-07-25T17:01:17.259Z,29.58
2022-07-25T17:03:25.717Z,29.59
2022-07-25T17:05:33.768Z,29.61
2022-07-25T17:07:44.386Z,29.56
2022-07-25T17:09:52.323Z,29.74
2022-07-25T17:12:00.192Z,29.76
2022-07-25T17:14:09.779Z,30.04
2022-07-25T17:16:18.045Z,30.30
2022-07-25T17:18:27.656Z,30.54
2022-07-25T17:20:35.556Z,30.83
2022-07-25T17:22:46.651Z,30.82
2022-07-25T17:24:54.605Z,30.86
2022-07-25T17:27:03.543Z,30.94
2022-07-25T17:29:11.620Z,30.90
2022-07-25T17:31:19.717Z,30.89
2022-07-25T17:33:28.481Z,30.78
2022-07-25T17:35:37.829Z,30.50
2022-07-25T17:37:49.616Z,30.46
2022-07-25T17:39:57.716Z,30.42
2022-07-25T17:42:08.030Z,30.31
2022-07-25T17:44:16.773Z,30.26
2022-07-25T17:46:25.143Z,30.09
2022-07-25T17:48:35.321Z,30.14
2022-07-25T17:50:45.425Z,30.04
2022-07-25T17:53:02.430Z,30.07
2022-07-25T17:55:12.113Z,30.15
2022-07-25T17:57:20.608Z,30.05
2022-07-25T17:59:28.766Z,30.15
2022-07-25T18:01:37.225Z,30.07
2022-07-25T18:03:47.590Z,29.97
2022-07-25T18:05:55.542Z,29.79
2022-07-25T18:08:08.939Z,29.98
2022-07-25T18:10:21.288Z,29.82
2022-07-25T18:12:29.598Z,29.73
2022-07-25T18:14:37.515Z,29.54
2022-07-25T18:16:48.237Z,29.28
2022-07-25T18:18:56.194Z,29.10
2022-07-25T18:21:05.751Z,28.97
2022-07-25T18:23:16.879Z,28.87
2022-07-25T18:25:26.164Z,28.79
2022-07-25T18:27:34.298Z,28.61
2022-07-25T18:29:42.513Z,28.50
2022-07-25T18:31:51.014Z,28.28
2022-07-25T18:33:58.813Z,28.24
2022-07-25T18:36:08.559Z,27.98
2022-07-25T18:38:19.768Z,27.84
2022-07-25T18:40:29.035Z,27.79
2022-07-25T18:42:39.227Z,27.63
2022-07-25T18:44:47.522Z,27.58
2022-07-25T18:46:55.392Z,27.46
2022-07-25T18:49:05.971Z,27.32
2022-07-25T18:51:14.326Z,27.27
2022-07-25T18:53:24.789Z,27.17
2022-07-25T18:55:33.335Z,27.08
2022-07-25T18:57:41.318Z,26.90
2022-07-25T18:59:49.392Z,26.79
2022-07-25T19:01:58.095Z,26.75
2022-07-25T19:04:06.904Z,26.67
2022-07-25T19:06:15.211Z,26.59
2022-07-25T19:08:27.008Z,26.39
2022-07-25T19:10:35.428Z,26.32
2022-07-25T19:12:45.783Z,26.38
2022-07-25T19:14:53.731Z,26.23
2022-07-25T19:17:04.541Z,26.10
2022-07-25T19:19:12.877Z,26.01
2022-07-25T19:21:20.950Z,25.95
2022-07-25T19:23:31.921Z,25.87
2022-07-25T19:25:40.134Z,25.81
2022-07-25T19:27:51.352Z,25.77
2022-07-25T19:30:00.341Z,25.65
2022-07-25T19:32:09.245Z,25.64
2022-07-25T19:34:20.170Z,25.57
2022-07-25T19:36:28.019Z,25.44
2022-07-25T19:38:38.703Z,25.35
2022-07-25T19:40:46.865Z,25.25
2022-07-25T19:42:54.896Z,25.14
2022-07-25T19:45:02.892Z,25.10
2022-07-25T19:47:12.024Z,25.11
2022-07-25T19:49:41.860Z,25.08
2022-07-25T19:51:55.105Z,25.07
2022-07-25T19:54:08.444Z,24.91
2022-07-25T19:56:23.353Z,24.91
2022-07-25T19:58:34.188Z,24.87
2022-07-25T20:00:46.204Z,24.95
2022-07-25T20:02:54.956Z,24.78
2022-07-25T20:05:05.254Z,24.68
2022-07-25T20:07:13.076Z,24.57
2022-07-25T20:09:24.010Z,24.56
2022-07-25T20:11:32.343Z,24.55
2022-07-25T20:13:40.281Z,24.58
2022-07-25T20:15:48.263Z,24.67
2022-07-25T20:17:57.317Z,24.73
2022-07-25T20:20:07.813Z,24.72
2022-07-25T20:22:15.721Z,24.67
2022-07-25T20:24:27.391Z,24.62
2022-07-25T20:26:36.868Z,24.53
2022-07-25T20:28:47.117Z,24.42
2022-07-25T20:30:56.224Z,24.46
2022-07-25T20:33:08.002Z,24.38
2022-07-25T20:35:18.432Z,24.39
2022-07-25T20:37:26.426Z,24.24
2022-07-25T20:39:39.933Z,24.17
2022-07-25T20:41:47.965Z,24.07
2022-07-25T20:43:58.069Z,24.02
2022-07-25T20:46:09.265Z,23.92
2022-07-25T20:48:19.691Z,23.79
2022-07-25T20:50:29.178Z,23.97
2022-07-25T20:52:37.084Z,23.94
2022-07-25T20:55:00.053Z,23.94
2022-07-25T20:57:11.630Z,23.83
2022-07-25T20:59:20.045Z,23.74
2022-07-25T21:01:29.815Z,23.75
2022-07-25T21:03:38.996Z,23.66
2022-07-25T21:05:46.958Z,23.61
2022-07-25T21:07:55.340Z,23.55
2022-07-25T21:10:05.891Z,23.51
2022-07-25T21:12:14.089Z,23.50
2022-07-25T21:14:21.967Z,23.44
2022-07-25T21:16:35.047Z,23.36
2022-07-25T21:18:44.070Z,23.35
2022-07-25T21:20:53.399Z,23.29
2022-07-25T21:23:01.805Z,23.27
2022-07-25T21:25:14.786Z,23.38
2022-07-25T21:27:23.749Z,23.33
2022-07-25T21:29:31.820Z,23.27
2022-07-25T21:31:40.318Z,23.17
2022-07-25T21:33:49.457Z,23.15
2022-07-25T21:35:57.630Z,23.11
2022-07-25T21:38:06.227Z,22.99
2022-07-25T21:40:17.326Z,22.97
2022-07-25T21:42:25.556Z,22.96
2022-07-25T21:44:34.589Z,22.92
2022-07-25T21:46:45.159Z,22.85
2022-07-25T21:49:05.546Z,22.82
2022-07-25T21:51:22.924Z,22.80
2022-07-25T21:53:32.051Z,22.83
2022-07-25T21:55:44.325Z,22.74
2022-07-25T21:57:52.561Z,22.67
2022-07-25T22:00:00.758Z,22.77
2022-07-25T22:02:09.101Z,22.59
2022-07-25T22:04:18.107Z,22.47
2022-07-25T22:06:26.467Z,22.47
2022-07-25T22:08:36.765Z,22.36
2022-07-25T22:10:47.941Z,22.37
2022-07-25T22:12:56.781Z,22.37
2022-07-25T22:15:05.063Z,22.35
2022-07-25T22:17:13.777Z,22.36
2022-07-25T22:19:22.611Z,22.36
2022-07-25T22:21:31.065Z,22.35
2022-07-25T22:23:39.036Z,22.39
2022-07-25T22:25:50.190Z,22.45
2022-07-25T22:27:58.544Z,22.36
2022-07-25T22:30:08.673Z,22.32
2022-07-25T22:32:17.129Z,22.30
2022-07-25T22:34:25.356Z,22.36
2022-07-25T22:36:33.781Z,22.30
2022-07-25T22:38:43.282Z,22.26
2022-07-25T22:40:55.245Z,22.16
2022-07-25T22:43:03.539Z,22.12
2022-07-25T22:45:13.103Z,22.18
2022-07-25T22:47:21.071Z,22.18
2022-07-25T22:49:29.200Z,22.16
2022-07-25T22:51:37.589Z,22.10
2022-07-25T22:53:46.251Z,22.10
2022-07-25T22:55:57.258Z,22.16
2022-07-25T22:58:05.581Z,22.11
2022-07-25T23:00:17.172Z,22.08
2022-07-25T23:02:27.795Z,22.06
2022-07-25T23:04:36.021Z,22.00
2022-07-25T23:06:44.042Z,21.96
2022-07-25T23:08:53.177Z,21.91
2022-07-25T23:11:06.168Z,21.88
2022-07-25T23:13:14.599Z,21.84
2022-07-25T23:15:22.870Z,21.89
2022-07-25T23:17:34.889Z,21.89
2022-07-25T23:19:43.582Z,21.98
2022-07-25T23:21:51.781Z,21.97
2022-07-25T23:24:00.522Z,21.89
2022-07-25T23:26:11.206Z,22.04
2022-07-25T23:28:19.919Z,21.95
2022-07-25T23:30:27.872Z,21.85
2022-07-25T23:32:37.066Z,21.85
2022-07-25T23:34:46.822Z,21.82
2022-07-25T23:36:54.946Z,21.77
2022-07-25T23:39:03.297Z,21.68
2022-07-25T23:41:14.736Z,21.70
2022-07-25T23:43:56.413Z,21.70
2022-07-25T23:45:51.146Z,21.68
2022-07-25T23:47:59.808Z,21.70
2022-07-25T23:50:09.788Z,21.60
2022-07-25T23:52:18.222Z,21.52
2022-07-25T23:54:26.714Z,21.58
2022-07-25T23:56:37.246Z,21.53
2022-07-25T23:58:46.268Z,21.47
